createdAt,value
2022-07-26T00:00:13.191Z,26.10
2022-07-26T00:02:47.452Z,26.10
2022-07-26T00:05:15.831Z,26.10
2022-07-26T00:07:42.696Z,26.10
2022-07-26T00:10:09.641Z,26.10
2022-07-26T00:12:36.602Z,26.10
2022-07-26T00:15:04.619Z,26.00
2022-07-26T00:17:34.666Z,26.00
2022-07-26T00:20:01.773Z,26.00
2022-07-26T00:22:34.419Z,26.00
2022-07-26T00:25:04.036Z,26.00
2022-07-26T00:27:37.001Z,26.10
2022-07-26T00:30:06.117Z,26.00
2022-07-26T00:32:37.793Z,26.10
2022-07-26T00:35:05.804Z,26.00
2022-07-26T00:37:33.291Z,26.00
2022-07-26T00:40:02.305Z,26.10
2022-07-26T00:42:29.028Z,26.00
2022-07-26T00:44:56.706Z,26.00
2022-07-26T00:47:25.988Z,26.10
2022-07-26T00:49:53.091Z,26.00
2022-07-26T00:52:20.038Z,26.10
2022-07-26T00:54:47.470Z,26.00
2022-07-26T00:57:14.905Z,26.10
2022-07-26T00:59:42.197Z,26.10
2022-07-26T01:02:10.657Z,26.10
2022-07-26T01:04:37.531Z,26.10
2022-07-26T01:07:15.407Z,26.00
2022-07-26T01:09:42.856Z,26.00
2022-07-26T01:12:11.552Z,26.10
2022-07-26T01:14:38.387Z,26.00
2022-07-26T01:17:05.161Z,26.00
2022-07-26T01:19:31.855Z,26.00
2022-07-26T01:21:59.069Z,26.00
2022-07-26T01:24:25.754Z,26.00
2022-07-26T01:26:52.577Z,26.10
2022-07-26T01:29:19.233Z,26.00
2022-07-26T01:31:45.974Z,26.00
2022-07-26T01:34:13.067Z,26.00
2022-07-26T01:36:39.944Z,26.00
2022-07-26T01:39:07.342Z,26.00
2022-07-26T01:41:38.181Z,26.00
2022-07-26T01:44:07.173Z,26.00
2022-07-26T01:46:35.512Z,26.00
2022-07-26T01:49:03.398Z,26.00
2022-07-26T01:54:06.936Z,26.00
2022-07-26T01:56:34.051Z,26.00
2022-07-26T01:59:02.044Z,26.00
2022-07-26T02:01:43.917Z,26.00
2022-07-26T02:04:31.476Z,26.00
2022-07-26T02:06:58.215Z,26.00
2022-07-26T02:09:25.882Z,26.00
2022-07-26T02:11:54.657Z,26.00
2022-07-26T02:14:25.587Z,26.00
2022-07-26T02:16:59.735Z,26.00
2022-07-26T02:19:28.534Z,26.00
2022-07-26T02:21:55.597Z,26.00
2022-07-26T02:24:22.873Z,26.00
2022-07-26T02:26:50.070Z,26.00
2022-07-26T02:29:16.878Z,26.00
2022-07-26T02:31:48.350Z,26.00
2022-07-26T02:34:16.154Z,26.00
2022-07-26T02:36:43.010Z,26.00
2022-07-26T02:39:10.318Z,26.00
2022-07-26T02:41:37.163Z,26.00
2022-07-26T02:44:04.361Z,26.00
2022-07-26T02:46:31.180Z,26.00
2022-07-26T02:48:59.563Z,26.00
2022-07-26T02:51:26.706Z,26.00
2022-07-26T02:53:56.557Z,26.00
2022-07-26T02:56:24.310Z,26.10
2022-07-26T02:58:50.960Z,26.00
2022-07-26T03:01:17.719Z,26.00
2022-07-26T03:03:50.118Z,26.00
2022-07-26T03:06:17.994Z,26.00
2022-07-26T03:08:44.715Z,26.10
2022-07-26T03:11:12.226Z,26.00
2022-07-26T03:13:39.168Z,26.00
2022-07-26T03:16:07.745Z,26.00
2022-07-26T03:18:34.584Z,26.00
2022-07-26T03:21:01.256Z,26.00
2022-07-26T03:23:28.051Z,26.00
2022-07-26T03:28:22.600Z,26.00
2022-07-26T03:30:49.250Z,26.00
2022-07-26T03:33:16.018Z,26.00
2022-07-26T03:35:42.684Z,26.00
2022-07-26T03:38:11.338Z,26.00
2022-07-26T03:40:38.123Z,26.00
2022-07-26T03:43:04.770Z,26.00
2022-07-26T03:45:32.106Z,26.10
2022-07-26T03:47:58.760Z,26.00
2022-07-26T03:50:25.475Z,26.00
2022-07-26T03:52:52.172Z,26.00
2022-07-26T03:55:37.536Z,26.00
2022-07-26T03:58:04.287Z,26.00
2022-07-26T04:00:30.962Z,26.00
2022-07-26T04:02:57.980Z,26.00
2022-07-26T04:05:26.239Z,26.00
2022-07-26T04:07:53.862Z,26.10
2022-07-26T04:10:21.606Z,26.00
2022-07-26T04:12:49.302Z,26.00
2022-07-26T04:15:17.033Z,26.00
2022-07-26T04:17:43.954Z,26.00
2022-07-26T04:20:12.384Z,26.00
2022-07-26T04:22:41.686Z,26.00
2022-07-26T04:25:09.703Z,26.00
2022-07-26T04:27:37.591Z,26.00
2022-07-26T04:30:08.576Z,26.00
2022-07-26T04:32:37.893Z,26.00
2022-07-26T04:35:04.941Z,25.90
2022-07-26T04:37:37.828Z,25.60
2022-07-26T04:40:05.077Z,25.40
2022-07-26T04:42:31.746Z,25.40
2022-07-26T04:44:58.469Z,25.30
2022-07-26T04:47:25.122Z,25.30
2022-07-26T04:49:52.065Z,25.40
2022-07-26T04:52:18.819Z,25.30
2022-07-26T04:57:12.575Z,25.20
2022-07-26T04:59:39.267Z,25.20
2022-07-26T05:02:06.169Z,25.20
2022-07-26T05:07:02.443Z,25.10
2022-07-26T05:09:30.125Z,25.00
2022-07-26T05:11:57.822Z,25.00
2022-07-26T05:14:24.498Z,25.00
2022-07-26T05:16:51.325Z,24.90
2022-07-26T05:19:18.134Z,24.90
2022-07-26T05:21:44.839Z,24.90
2022-07-26T05:24:11.878Z,24.90
2022-07-26T05:26:38.968Z,25.00
2022-07-26T05:29:05.648Z,25.10
2022-07-26T05:31:32.271Z,25.10
2022-07-26T05:33:58.901Z,25.20
2022-07-26T05:36:25.574Z,25.10
2022-07-26T05:38:52.215Z,25.30
2022-07-26T05:41:18.925Z,25.30
2022-07-26T05:43:45.683Z,25.30
2022-07-26T05:46:12.962Z,25.30
2022-07-26T05:48:40.092Z,25.40
2022-07-26T05:51:06.872Z,25.30
2022-07-26T05:53:33.986Z,25.40
2022-07-26T05:56:00.731Z,25.40
2022-07-26T05:58:27.450Z,25.40
2022-07-26T06:00:54.286Z,25.40
2022-07-26T06:03:23.641Z,25.40
2022-07-26T06:05:52.996Z,25.40
2022-07-26T06:08:20.521Z,25.40
2022-07-26T06:10:48.222Z,25.40
2022-07-26T06:13:15.599Z,25.40
2022-07-26T06:15:42.965Z,25.50
2022-07-26T06:18:10.274Z,25.40
2022-07-26T06:20:44.931Z,25.40
2022-07-26T06:23:12.067Z,25.50
2022-07-26T06:25:39.110Z,25.50
2022-07-26T06:28:08.325Z,25.50
2022-07-26T06:30:36.267Z,25.40
2022-07-26T06:33:03.032Z,25.40
2022-07-26T06:35:31.900Z,25.40
2022-07-26T06:37:59.934Z,25.20
2022-07-26T06:40:26.898Z,25.20
2022-07-26T06:42:53.883Z,25.30
2022-07-26T06:45:20.891Z,25.20
2022-07-26T06:47:47.733Z,25.20
2022-07-26T06:50:14.492Z,25.20
2022-07-26T06:52:43.905Z,25.30
2022-07-26T06:55:14.750Z,25.30
2022-07-26T06:57:49.660Z,25.30
2022-07-26T07:00:17.730Z,25.40
2022-07-26T07:02:44.496Z,25.30
2022-07-26T07:05:11.911Z,25.30
2022-07-26T07:07:38.976Z,25.30
2022-07-26T07:10:09.225Z,25.30
2022-07-26T07:12:35.954Z,25.30
2022-07-26T07:15:02.651Z,25.30
2022-07-26T07:17:29.316Z,25.30
2022-07-26T07:19:56.030Z,25.30
2022-07-26T07:22:22.790Z,25.30
2022-07-26T07:24:49.522Z,25.30
2022-07-26T07:27:16.193Z,25.30
2022-07-26T07:29:43.213Z,25.40
2022-07-26T07:32:18.546Z,25.40
2022-07-26T07:34:48.027Z,25.40
2022-07-26T07:37:15.530Z,25.40
2022-07-26T07:39:42.541Z,25.50
2022-07-26T07:44:36.261Z,25.40
2022-07-26T07:47:03.285Z,25.40
2022-07-26T07:49:30.097Z,25.20
2022-07-26T07:51:56.775Z,25.20
2022-07-26T07:54:23.425Z,25.20
2022-07-26T07:56:52.975Z,25.20
2022-07-26T07:59:19.625Z,25.20
2022-07-26T08:01:49.879Z,25.20
2022-07-26T08:04:16.771Z,25.20
2022-07-26T08:06:47.721Z,25.20
2022-07-26T08:09:18.109Z,25.20
2022-07-26T08:11:44.939Z,25.20
2022-07-26T08:14:11.663Z,25.20
2022-07-26T08:16:39.994Z,25.20
2022-07-26T08:19:07.289Z,25.20
2022-07-26T08:21:35.472Z,25.20
2022-07-26T08:24:09.217Z,25.20
2022-07-26T08:26:36.005Z,25.20
2022-07-26T08:29:02.844Z,25.20
2022-07-26T08:31:29.635Z,25.10
2022-07-26T08:33:56.723Z,25.10
2022-07-26T08:36:26.241Z,25.10
2022-07-26T08:38:58.569Z,25.00
2022-07-26T08:41:25.262Z,25.00
2022-07-26T08:43:53.793Z,25.10
2022-07-26T08:46:27.035Z,25.00
2022-07-26T08:48:58.004Z,25.00
2022-07-26T08:51:26.059Z,25.00
2022-07-26T08:54:04.432Z,24.90
2022-07-26T08:56:36.178Z,25.00
2022-07-26T08:59:19.001Z,25.00
2022-07-26T09:02:01.664Z,25.20
2022-07-26T09:04:43.636Z,25.30
2022-07-26T09:07:17.449Z,25.20
2022-07-26T09:10:08.975Z,25.20
2022-07-26T09:12:36.081Z,25.20
2022-07-26T09:15:05.003Z,25.20
2022-07-26T09:17:40.684Z,25.20
2022-07-26T09:20:12.825Z,25.20
2022-07-26T09:23:09.333Z,25.20
2022-07-26T09:25:44.514Z,25.20
2022-07-26T09:28:29.616Z,25.20
2022-07-26T09:31:04.529Z,25.20
2022-07-26T09:33:48.611Z,25.30
2022-07-26T09:36:15.858Z,25.30
2022-07-26T09:38:47.719Z,25.40
2022-07-26T09:41:20.600Z,25.40
2022-07-26T09:43:53.186Z,25.40
2022-07-26T09:46:21.982Z,25.40
2022-07-26T09:51:44.619Z,25.40
2022-07-26T09:54:17.105Z,25.50
2022-07-26T09:56:49.135Z,25.50
2022-07-26T09:59:18.221Z,25.50
2022-07-26T10:01:45.552Z,25.40
2022-07-26T10:04:13.622Z,25.40
2022-07-26T10:06:41.613Z,25.50
2022-07-26T10:09:08.885Z,25.40
2022-07-26T10:11:50.551Z,25.40
2022-07-26T10:14:37.016Z,25.40
2022-07-26T10:17:31.307Z,25.40
2022-07-26T10:20:01.615Z,25.50
2022-07-26T10:22:32.309Z,25.60
2022-07-26T10:25:19.142Z,25.70
2022-07-26T10:27:47.308Z,25.70
2022-07-26T10:30:20.105Z,25.70
2022-07-26T10:33:13.411Z,25.70
2022-07-26T10:35:44.534Z,25.70
2022-07-26T10:38:28.977Z,25.70
2022-07-26T10:41:07.834Z,25.80
2022-07-26T10:43:42.789Z,25.80
2022-07-26T10:46:18.974Z,25.80
2022-07-26T10:48:58.802Z,25.80
2022-07-26T10:51:28.343Z,25.90
2022-07-26T10:54:06.593Z,25.90
2022-07-26T10:56:34.123Z,25.90
2022-07-26T10:59:01.738Z,25.90
2022-07-26T11:01:40.512Z,25.90
2022-07-26T11:04:18.199Z,26.00
2022-07-26T11:06:45.732Z,26.00
2022-07-26T11:09:13.097Z,26.00
2022-07-26T11:11:46.576Z,26.00
2022-07-26T11:14:17.122Z,26.00
2022-07-26T11:16:47.315Z,26.10
2022-07-26T11:19:20.755Z,26.00
2022-07-26T11:22:00.269Z,26.10
2022-07-26T11:24:28.062Z,26.10
2022-07-26T11:26:55.018Z,26.10
2022-07-26T11:29:38.716Z,26.10
2022-07-26T11:32:20.653Z,26.10
2022-07-26T11:34:59.034Z,26.10
2022-07-26T11:37:25.741Z,26.10
2022-07-26T11:39:53.900Z,26.20
2022-07-26T11:42:21.928Z,26.10
2022-07-26T11:44:50.486Z,26.10
2022-07-26T11:47:25.536Z,26.10
2022-07-26T11:52:40.183Z,26.10
2022-07-26T11:55:07.402Z,26.10
2022-07-26T11:57:34.158Z,26.10
2022-07-26T12:00:01.379Z,26.10
2022-07-26T12:02:29.023Z,26.10
2022-07-26T12:05:19.932Z,26.10
2022-07-26T12:07:55.863Z,26.10
2022-07-26T12:12:50.198Z,26.10
2022-07-26T12:15:16.939Z,26.10
2022-07-26T12:17:59.795Z,26.00
2022-07-26T12:20:28.145Z,26.00
2022-07-26T12:22:57.440Z,26.00
2022-07-26T12:25:26.265Z,26.10
2022-07-26T12:27:53.156Z,26.10
2022-07-26T12:30:20.012Z,26.10
2022-07-26T12:32:48.858Z,26.10
2022-07-26T12:35:25.221Z,26.00
2022-07-26T12:37:53.485Z,26.00
2022-07-26T12:40:26.058Z,26.00
2022-07-26T12:43:01.316Z,26.00
2022-07-26T12:45:34.429Z,26.00
2022-07-26T12:48:03.384Z,26.00
2022-07-26T12:50:32.671Z,26.00
2022-07-26T12:53:01.905Z,26.00
2022-07-26T12:55:28.831Z,26.00
2022-07-26T12:57:55.878Z,26.10
2022-07-26T13:00:24.403Z,26.00
2022-07-26T13:02:54.729Z,26.10
2022-07-26T13:05:21.759Z,26.10
2022-07-26T13:07:48.770Z,26.00
2022-07-26T13:10:33.603Z,26.10
2022-07-26T13:13:01.943Z,26.10
2022-07-26T13:15:35.327Z,26.10
2022-07-26T13:18:06.974Z,26.10
2022-07-26T13:20:34.476Z,26.10
2022-07-26T13:23:02.011Z,26.20
2022-07-26T13:25:29.043Z,26.10
2022-07-26T13:28:05.228Z,26.10
2022-07-26T13:30:32.034Z,26.10
2022-07-26T13:42:49.914Z,26.10
2022-07-26T13:45:16.561Z,26.10
2022-07-26T13:47:43.590Z,26.10
2022-07-26T13:50:10.642Z,26.20
2022-07-26T13:52:37.409Z,26.20
2022-07-26T13:55:04.371Z,26.30
2022-07-26T13:57:49.187Z,26.20
2022-07-26T14:00:20.196Z,26.30
2022-07-26T14:02:46.969Z,26.30
2022-07-26T14:05:13.768Z,26.30
2022-07-26T14:07:42.362Z,26.30
2022-07-26T14:10:09.243Z,26.30
2022-07-26T14:12:37.148Z,26.20
2022-07-26T14:15:11.261Z,26.30
2022-07-26T14:17:39.967Z,26.30
2022-07-26T14:20:07.221Z,26.30
2022-07-26T14:22:33.916Z,26.30
2022-07-26T14:25:00.629Z,26.30
2022-07-26T14:27:27.393Z,26.40
2022-07-26T14:29:54.085Z,26.40
2022-07-26T14:32:22.145Z,26.40
2022-07-26T14:34:50.284Z,26.30
2022-07-26T14:37:43.893Z,26.40
2022-07-26T14:40:05.743Z,26.30
2022-07-26T14:42:32.770Z,26.30
2022-07-26T14:44:59.631Z,26.40
2022-07-26T14:47:26.324Z,26.40
2022-07-26T14:49:53.064Z,26.40
2022-07-26T14:52:19.763Z,26.40
2022-07-26T14:54:46.479Z,26.40
2022-07-26T14:57:13.155Z,26.40
2022-07-26T14:59:39.803Z,26.40
2022-07-26T15:04:33.692Z,26.40
2022-07-26T15:07:00.357Z,26.40
2022-07-26T15:09:27.005Z,26.50
2022-07-26T15:11:53.741Z,26.50
2022-07-26T15:14:20.408Z,26.50
2022-07-26T15:16:47.152Z,26.50
2022-07-26T15:19:13.829Z,26.50
2022-07-26T15:24:09.668Z,26.50
2022-07-26T15:26:36.527Z,26.50
2022-07-26T15:29:03.301Z,26.50
2022-07-26T15:31:36.577Z,26.50
2022-07-26T15:34:07.276Z,26.50
2022-07-26T15:36:34.435Z,26.50
2022-07-26T15:39:15.616Z,26.40
2022-07-26T15:41:43.202Z,26.40
2022-07-26T15:44:11.504Z,26.40
2022-07-26T15:46:39.706Z,26.40
2022-07-26T15:49:07.620Z,26.40
2022-07-26T15:51:34.695Z,26.40
2022-07-26T15:54:02.625Z,26.40
2022-07-26T15:56:29.373Z,26.40
2022-07-26T15:58:56.184Z,26.30
2022-07-26T16:01:23.113Z,26.30
2022-07-26T16:03:50.706Z,26.40
2022-07-26T16:06:17.425Z,26.30
2022-07-26T16:09:05.916Z,26.30
2022-07-26T16:11:31.899Z,26.30
2022-07-26T16:14:01.632Z,26.30
2022-07-26T16:16:30.164Z,26.20
2022-07-26T16:18:57.410Z,26.20
2022-07-26T16:21:24.453Z,26.20
2022-07-26T16:23:51.522Z,26.20
2022-07-26T16:26:18.708Z,26.20
2022-07-26T16:28:45.424Z,26.20
2022-07-26T16:31:12.388Z,26.20
2022-07-26T16:33:46.306Z,26.20
2022-07-26T16:38:41.256Z,26.20
2022-07-26T16:41:08.103Z,26.20
2022-07-26T16:43:35.256Z,26.30
2022-07-26T16:46:02.370Z,26.30
2022-07-26T16:48:29.179Z,26.30
2022-07-26T16:50:55.994Z,26.30
2022-07-26T16:53:22.756Z,26.30
2022-07-26T16:55:51.659Z,26.30
2022-07-26T16:58:19.163Z,26.30
2022-07-26T17:00:46.133Z,26.30
2022-07-26T17:03:16.175Z,26.30
2022-07-26T17:05:44.375Z,26.30
2022-07-26T17:08:11.053Z,26.10
2022-07-26T17:10:38.099Z,26.20
2022-07-26T17:13:04.811Z,26.20
2022-07-26T17:15:31.485Z,26.20
2022-07-26T17:17:58.176Z,26.20
2022-07-26T17:20:24.930Z,26.20
2022-07-26T17:22:51.754Z,26.20
2022-07-26T17:25:18.443Z,26.20
2022-07-26T17:27:45.240Z,26.20
2022-07-26T17:30:12.334Z,26.10
2022-07-26T17:32:39.075Z,26.20
2022-07-26T17:35:07.112Z,26.10
2022-07-26T17:37:36.806Z,26.10
2022-07-26T17:40:07.799Z,26.10
2022-07-26T17:42:35.008Z,26.10
2022-07-26T17:45:01.931Z,26.10
2022-07-26T17:47:30.473Z,26.20
2022-07-26T17:50:26.447Z,26.10
2022-07-26T17:52:50.237Z,26.10
2022-07-26T17:55:18.862Z,26.10
2022-07-26T17:57:46.556Z,26.10
2022-07-26T18:00:14.129Z,26.10
2022-07-26T18:02:40.989Z,26.10
2022-07-26T18:05:08.196Z,26.10
2022-07-26T18:07:34.930Z,26.10
2022-07-26T18:10:01.585Z,26.10
2022-07-26T18:12:30.373Z,26.10
2022-07-26T18:14:57.189Z,26.00
2022-07-26T18:17:24.590Z,26.00
2022-07-26T18:19:51.274Z,25.90
2022-07-26T18:22:17.963Z,25.90
2022-07-26T18:27:11.800Z,25.70
2022-07-26T18:32:05.850Z,25.60
2022-07-26T18:34:32.496Z,25.60
2022-07-26T18:36:59.141Z,25.60
2022-07-26T18:39:25.834Z,25.50
2022-07-26T18:41:59.489Z,25.60
2022-07-26T18:44:26.165Z,25.50
2022-07-26T18:46:52.999Z,25.50
2022-07-26T18:49:21.069Z,25.50
2022-07-26T18:51:49.014Z,25.40
2022-07-26T18:54:17.010Z,25.40
2022-07-26T18:56:43.987Z,25.40
2022-07-26T18:59:11.092Z,25.40
2022-07-26T19:01:38.042Z,25.50
2022-07-26T19:04:07.288Z,25.50
2022-07-26T19:06:34.899Z,25.50
2022-07-26T19:09:01.624Z,25.60
2022-07-26T19:11:29.510Z,25.60
2022-07-26T19:13:56.306Z,25.60
2022-07-26T19:16:23.292Z,25.60
2022-07-26T19:18:53.775Z,25.60
2022-07-26T19:21:24.134Z,25.60
2022-07-26T19:23:50.829Z,25.60
2022-07-26T19:26:17.484Z,25.60
2022-07-26T19:28:44.199Z,25.70
2022-07-26T19:31:11.014Z,25.70
2022-07-26T19:33:37.702Z,25.60
2022-07-26T19:36:04.477Z,25.70
2022-07-26T19:38:32.824Z,25.70
2022-07-26T19:41:00.362Z,25.70
2022-07-26T19:43:27.426Z,25.70
2022-07-26T19:45:54.475Z,25.70
2022-07-26T19:48:21.316Z,25.70
2022-07-26T19:50:48.594Z,25.70
2022-07-26T19:53:15.295Z,25.80
2022-07-26T19:55:42.373Z,25.70
2022-07-26T19:58:09.361Z,25.70
2022-07-26T20:00:36.521Z,25.70
2022-07-26T20:03:03.646Z,25.70
2022-07-26T20:05:30.431Z,25.70
2022-07-26T20:07:57.942Z,25.70
2022-07-26T20:10:30.052Z,25.70
2022-07-26T20:12:58.601Z,25.70
2022-07-26T20:15:25.975Z,25.70
2022-07-26T20:17:52.696Z,25.70
2022-07-26T20:20:19.974Z,25.70
2022-07-26T20:25:16.885Z,25.70
2022-07-26T20:27:49.670Z,25.70
2022-07-26T20:30:16.781Z,25.70
2022-07-26T20:32:43.871Z,25.70
2022-07-26T20:35:10.507Z,25.70
2022-07-26T20:37:37.557Z,25.70
2022-07-26T20:40:05.106Z,25.70
2022-07-26T20:42:34.489Z,25.70
2022-07-26T20:45:02.204Z,25.70
2022-07-26T20:47:28.936Z,25.70
2022-07-26T20:49:59.669Z,25.70
2022-07-26T20:52:29.447Z,25.70
2022-07-26T20:54:56.129Z,25.70
2022-07-26T20:57:23.497Z,25.70
2022-07-26T20:59:50.255Z,25.70
2022-07-26T21:02:17.210Z,25.70
2022-07-26T21:04:45.022Z,25.70
2022-07-26T21:07:11.805Z,25.70
2022-07-26T21:09:38.738Z,25.70
2022-07-26T21:12:05.876Z,25.70
2022-07-26T21:14:32.544Z,25.70
2022-07-26T21:16:59.534Z,25.70
2022-07-26T21:19:26.297Z,25.70
2022-07-26T21:21:56.927Z,25.70
2022-07-26T21:24:23.568Z,25.70
2022-07-26T21:26:50.277Z,25.70
2022-07-26T21:29:17.223Z,25.70
2022-07-26T21:31:43.866Z,25.70
2022-07-26T21:34:10.542Z,25.80
2022-07-26T21:36:40.176Z,25.70
2022-07-26T21:39:08.082Z,25.70
2022-07-26T21:41:36.105Z,25.70
2022-07-26T21:44:04.205Z,25.70
2022-07-26T21:46:31.375Z,25.70
2022-07-26T21:48:58.166Z,25.70
2022-07-26T21:51:24.856Z,25.70
2022-07-26T21:53:51.538Z,25.70
2022-07-26T21:56:18.218Z,25.70
2022-07-26T21:58:44.868Z,25.70
2022-07-26T22:01:14.462Z,25.70
2022-07-26T22:03:42.407Z,25.70
2022-07-26T22:06:10.121Z,25.70
2022-07-26T22:08:37.624Z,25.70
2022-07-26T22:11:05.088Z,25.70
2022-07-26T22:13:32.243Z,25.70
2022-07-26T22:15:58.964Z,25.70
2022-07-26T22:18:26.034Z,25.70
2022-07-26T22:20:53.411Z,25.70
2022-07-26T22:23:20.509Z,25.70
2022-07-26T22:25:47.177Z,25.70
2022-07-26T22:28:18.257Z,25.80
2022-07-26T22:30:45.898Z,25.70
2022-07-26T22:33:12.580Z,25.70
2022-07-26T22:35:39.261Z,25.70
2022-07-26T22:38:10.910Z,25.70
2022-07-26T22:40:39.457Z,25.70
2022-07-26T22:43:07.465Z,25.70
2022-07-26T22:45:34.464Z,25.70
2022-07-26T22:48:05.428Z,25.70
2022-07-26T22:50:32.849Z,25.70
2022-07-26T22:53:00.892Z,25.70
2022-07-26T22:55:28.498Z,25.70
2022-07-26T22:57:55.279Z,25.70
2022-07-26T23:00:22.056Z,25.70
2022-07-26T23:02:49.093Z,25.70
2022-07-26T23:05:15.981Z,25.70
2022-07-26T23:07:45.972Z,25.70
2022-07-26T23:10:16.025Z,25.70
2022-07-26T23:12:42.669Z,25.70
2022-07-26T23:15:10.552Z,25.70
2022-07-26T23:17:37.547Z,25.70
2022-07-26T23:20:06.230Z,25.70
2022-07-26T23:22:33.260Z,25.70
2022-07-26T23:27:27.229Z,25.70
2022-07-26T23:29:53.905Z,25.70
2022-07-26T23:32:20.579Z,25.70
2022-07-26T23:34:47.259Z,25.70
2022-07-26T23:37:14.019Z,25.70
2022-07-26T23:39:40.768Z,25.70
2022-07-26T23:42:07.601Z,25.70
2022-07-26T23:44:34.420Z,25.70
2022-07-26T23:47:01.431Z,25.70
2022-07-26T23:49:28.238Z,25.70
2022-07-26T23:51:54.977Z,25.70
2022-07-26T23:54:21.652Z,25.70
2022-07-26T23:56:48.430Z,25.70
2022-07-26T23:59:15.487Z,25.70
